Terminal Aerodrome Forecast
Issued by NWS

Home | Current Version | Previous Version | Text Only | Print | Product List | Glossary On
Versions: 1 2 3 4 5 6 7 8 9 10 11 12 13 14 15 16 17 18 19 20 21
000
FTAK31 PAJN 161532 AAB
TAFAJN
TAF AMD
PAJN 161532Z 1616/1712 12028G40KT 5SM -RA BR SCT015 BKN025 OVC035
      WS020/15050KT
      TEMPO 1616/1618 4SM RA BR BKN012
     FM170200 20015KT P6SM -RA OVC025 WS020/21035KT
     FM170500 12011KT P6SM VCSH SCT020 BKN040=

USA.gov is the U.S. government's official web portal to all federal, state and local government web resources and services.